Ajo, Arizona
Current Conditions -  °F | °C
As of 12:15 AM on Saturday 29 Nov 2014 (Local Time) from KBXK Reporting Station
NA  
Wind Chill:   Ceiling: NA
Heat Index:   Visibility: 10mi
Dew Point: -7°   Wind: 3mph
Humidity: 32%   Direction: 360°N
Pressure: 29.91"   Gusts: NA
Location:  32.37°N, 112.86°W
Report Text: KBXK 290715Z AUTO 36003KT 10SM 09/M07 A2991 RMK AO1
Loading
Personal Weather Stations






























Interactive Weather Map New forecast layout! Learn more

10-Day Weather Forecast

Advertisements
Track Severe Weather on mobile